Time;durP1;ratioP1;P1;durP2;ratioP2;P2;SDS_P1;SDS_P2;PMS_P1;PMS_P2;Temp;Humidity;BMP_temperature;BMP_pressure;BME280_temperature;BME280_humidity;BME280_pressure;Samples;Min_cycle;Max_cycle;Signal;HPM_P1;HPM_P2
2022/08/09 00:02:05;;;;;;;2.90;1.67;;;;;;;18.70;48.06;100767.66;5035598;28;20306;-78
2022/08/09 00:04:30;;;;;;;3.27;1.77;;;;;;;18.65;47.97;100763.72;5012767;28;20261;-78
2022/08/09 00:06:55;;;;;;;3.10;1.40;;;;;;;18.59;48.53;100767.63;5046050;28;20741;-79
2022/08/09 00:09:21;;;;;;;2.43;1.77;;;;;;;18.54;49.40;100756.75;5025218;28;20202;-80
2022/08/09 00:11:46;;;;;;;2.00;1.60;;;;;;;18.48;49.92;100767.63;5033147;28;20604;-78
2022/08/09 00:14:12;;;;;;;2.40;1.73;;;;;;;18.54;49.52;100762.81;5019881;28;20194;-79
2022/08/09 00:16:38;;;;;;;2.00;1.53;;;;;;;18.46;49.50;100757.34;5013747;28;20630;-78
2022/08/09 00:19:04;;;;;;;1.90;1.50;;;;;;;18.45;49.75;100755.69;5014313;28;20186;-76
2022/08/09 00:21:30;;;;;;;2.73;1.70;;;;;;;18.46;49.97;100759.13;5027475;28;20213;-77
2022/08/09 00:23:57;;;;;;;3.23;1.80;;;;;;;18.38;50.47;100749.28;5016745;28;20194;-78
2022/08/09 00:26:23;;;;;;;1.80;1.70;;;;;;;18.32;51.00;100750.59;5014290;28;20195;-78
2022/08/09 00:28:48;;;;;;;2.40;1.77;;;;;;;18.31;51.08;100748.13;5014075;28;20199;-77
2022/08/09 00:31:13;;;;;;;2.53;1.70;;;;;;;18.34;50.45;100746.09;5022808;28;20231;-78
2022/08/09 00:33:40;;;;;;;3.30;2.07;;;;;;;18.32;50.71;100736.72;5027229;28;20187;-80
2022/08/09 00:36:06;;;;;;;4.33;1.93;;;;;;;18.25;51.04;100744.22;5011908;28;20186;-77
2022/08/09 00:38:31;;;;;;;3.03;1.70;;;;;;;18.20;51.99;100746.34;5014118;28;20189;-79
2022/08/09 00:40:56;;;;;;;2.27;1.40;;;;;;;18.15;52.17;100738.88;5018359;28;20316;-79
2022/08/09 00:43:22;;;;;;;3.67;1.67;;;;;;;18.10;52.52;100743.59;5031300;28;20199;-79
2022/08/09 00:45:48;;;;;;;2.13;1.70;;;;;;;18.03;52.73;100743.22;5013462;28;20191;-78
2022/08/09 00:48:13;;;;;;;2.37;1.60;;;;;;;18.12;52.71;100743.47;5012096;28;20221;-78
2022/08/09 00:50:39;;;;;;;2.90;1.90;;;;;;;18.06;53.20;100742.19;5013215;28;20283;-78
2022/08/09 00:53:05;;;;;;;5.63;2.20;;;;;;;17.98;53.68;100737.53;5036041;28;20198;-79
2022/08/09 00:55:30;;;;;;;1.37;1.27;;;;;;;17.86;54.15;100752.28;5013411;28;20265;-80
2022/08/09 00:57:56;;;;;;;2.30;1.83;;;;;;;17.81;54.64;100748.38;5013584;28;20607;-80
2022/08/09 01:00:21;;;;;;;1.73;1.50;;;;;;;17.90;54.06;100745.91;5006130;28;30752;-79
2022/08/09 01:02:52;;;;;;;3.03;1.53;;;;;;;17.84;54.04;100748.97;5040533;28;20195;-79
2022/08/09 01:05:36;;;;;;;1.73;1.63;;;;;;;17.75;54.97;100742.69;5012548;28;20195;-77
2022/08/09 01:08:33;;;;;;;3.27;1.87;;;;;;;17.69;55.05;100743.13;5016944;28;20669;-78
2022/08/09 01:11:27;;;;;;;3.00;2.20;;;;;;;17.78;54.77;100738.19;4998812;28;20325;-78
2022/08/09 01:13:58;;;;;;;3.00;1.83;;;;;;;17.75;54.08;100741.88;5019093;28;20180;-78
2022/08/09 01:16:28;;;;;;;4.47;2.13;;;;;;;17.71;54.72;100743.88;5023299;28;20182;-78
2022/08/09 01:19:00;;;;;;;6.40;1.93;;;;;;;17.61;55.28;100732.47;5044915;28;20170;-77
2022/08/09 01:21:48;;;;;;;4.13;1.80;;;;;;;17.53;54.97;100735.63;5025434;28;20348;-78
2022/08/09 01:24:37;;;;;;;3.43;2.03;;;;;;;17.50;55.21;100742.84;5012794;28;20193;-78
2022/08/09 01:27:06;;;;;;;3.90;1.80;;;;;;;17.55;55.15;100740.72;5011927;28;20575;-78
2022/08/09 01:29:33;;;;;;;4.90;2.00;;;;;;;17.65;54.16;100735.66;5011557;28;20692;-78
2022/08/09 01:32:03;;;;;;;3.10;1.90;;;;;;;17.56;54.49;100744.97;5033092;28;20225;-78
2022/08/09 01:34:31;;;;;;;3.83;2.20;;;;;;;17.51;54.74;100739.31;5012560;28;20270;-78
2022/08/09 01:37:00;;;;;;;5.07;2.00;;;;;;;17.45;55.18;100743.16;5013152;28;20186;-79
2022/08/09 01:39:27;;;;;;;2.57;2.20;;;;;;;17.34;56.09;100741.38;5011675;28;20193;-78
2022/08/09 01:41:53;;;;;;;1.77;1.67;;;;;;;17.37;56.11;100740.31;5032098;28;20320;-77
2022/08/09 01:44:21;;;;;;;5.43;2.00;;;;;;;17.28;56.24;100739.22;5012122;28;20186;-78
2022/08/09 01:46:48;;;;;;;2.53;2.00;;;;;;;17.20;56.37;100733.75;5012598;28;20523;-78
2022/08/09 01:49:16;;;;;;;3.37;2.10;;;;;;;17.12;56.68;100730.84;5012544;28;20202;-78
2022/08/09 01:51:44;;;;;;;3.47;2.07;;;;;;;17.12;56.89;100733.44;5028664;28;20235;-79
2022/08/09 01:54:12;;;;;;;3.47;1.83;;;;;;;17.18;56.38;100736.47;5017244;28;20626;-79
2022/08/09 01:56:43;;;;;;;2.93;2.10;;;;;;;17.14;56.23;100732.44;5010869;28;20197;-77
2022/08/09 01:59:12;;;;;;;2.60;2.00;;;;;;;17.17;55.63;100723.56;5010175;28;20175;-78
2022/08/09 02:01:39;;;;;;;2.10;1.90;;;;;;;17.27;55.74;100734.97;5036719;28;20234;-76
2022/08/09 02:04:08;;;;;;;2.00;1.80;;;;;;;17.24;55.90;100729.97;5010585;28;20171;-77
2022/08/09 02:09:22;;;;;;;4.83;1.80;;;;;;;17.18;56.30;100738.22;5017321;28;20282;-77
2022/08/09 02:11:47;;;;;;;3.03;1.87;;;;;;;17.16;56.13;100737.50;5025804;28;20302;-77
2022/08/09 02:14:16;;;;;;;2.87;1.90;;;;;;;17.11;56.38;100740.44;5017155;28;20179;-76
2022/08/09 02:16:43;;;;;;;2.50;1.93;;;;;;;17.07;56.87;100736.41;5017157;28;20186;-77
2022/08/09 02:19:08;;;;;;;2.80;2.10;;;;;;;17.13;56.94;100737.72;5011180;28;20644;-77
2022/08/09 02:21:39;;;;;;;4.80;1.87;;;;;;;17.17;56.60;100749.56;5016463;28;20321;-77
2022/08/09 02:24:07;;;;;;;3.50;1.93;;;;;;;17.18;56.29;100754.66;5013428;28;20602;-77
2022/08/09 02:26:34;;;;;;;2.17;1.90;;;;;;;17.11;56.52;100750.81;5012169;28;20190;-77
2022/08/09 02:29:05;;;;;;;6.70;2.00;;;;;;;17.13;56.30;100751.56;5011846;28;20257;-78
2022/08/09 02:31:37;;;;;;;4.37;2.47;;;;;;;17.00;56.53;100750.78;5024963;28;20311;-79
2022/08/09 02:34:09;;;;;;;2.97;1.87;;;;;;;16.94;56.52;100741.63;5018219;28;20186;-79
2022/08/09 02:36:40;;;;;;;3.33;2.37;;;;;;;16.96;57.22;100749.34;5012278;28;20175;-78
2022/08/09 02:39:09;;;;;;;3.83;2.00;;;;;;;16.89;57.71;100744.53;5043050;28;20185;-79
2022/08/09 02:41:45;;;;;;;2.50;1.87;;;;;;;16.76;58.55;100746.34;5026415;28;20225;-78
2022/08/09 02:44:19;;;;;;;2.03;1.77;;;;;;;16.86;58.41;100747.34;5015599;28;20179;-78
2022/08/09 02:46:47;;;;;;;4.43;1.87;;;;;;;16.84;57.66;100740.59;5010845;28;20183;-78
2022/08/09 02:49:15;;;;;;;4.53;2.33;;;;;;;16.79;57.79;100738.31;5011942;28;20201;-78
2022/08/09 02:51:43;;;;;;;2.80;2.10;;;;;;;16.76;58.04;100741.16;5028198;28;20283;-78
2022/08/09 02:54:14;;;;;;;3.10;2.50;;;;;;;16.79;58.37;100746.13;5015531;28;20191;-78
2022/08/09 02:56:43;;;;;;;3.67;2.13;;;;;;;16.69;58.99;100745.13;5011668;28;20175;-78
2022/08/09 02:59:11;;;;;;;3.10;2.20;;;;;;;16.73;59.14;100743.94;5011871;28;20222;-78
2022/08/09 03:01:38;;;;;;;4.40;2.13;;;;;;;16.74;58.70;100735.22;5016495;28;20217;-78
2022/08/09 03:04:05;;;;;;;2.57;2.00;;;;;;;16.66;58.62;100740.97;5017734;28;20195;-78
2022/08/09 03:06:32;;;;;;;4.50;2.40;;;;;;;16.66;59.08;100737.53;5043337;28;20226;-78
2022/08/09 03:08:59;;;;;;;5.20;2.30;;;;;;;16.62;59.69;100734.31;5011871;28;20202;-77
2022/08/09 03:11:25;;;;;;;3.03;2.30;;;;;;;16.59;59.66;100734.53;5016770;28;20229;-78
2022/08/09 03:13:52;;;;;;;4.30;2.27;;;;;;;16.57;59.81;100741.59;5021287;28;20203;-79
2022/08/09 03:16:18;;;;;;;2.23;1.73;;;;;;;16.52;60.57;100734.16;5024675;28;20303;-77
2022/08/09 03:18:45;;;;;;;5.60;2.17;;;;;;;16.45;61.05;100735.50;5023175;28;20257;-76
2022/08/09 03:21:11;;;;;;;3.43;2.37;;;;;;;16.39;61.71;100741.94;5012908;28;20379;-77
2022/08/09 03:23:36;;;;;;;5.30;2.27;;;;;;;16.39;61.87;100736.75;5025109;28;20257;-78
2022/08/09 03:26:02;;;;;;;4.20;2.40;;;;;;;16.39;61.77;100741.94;5011135;28;20623;-77
2022/08/09 03:28:29;;;;;;;2.67;2.13;;;;;;;16.41;62.36;100747.88;5010196;28;20199;-77
2022/08/09 03:30:55;;;;;;;2.87;2.10;;;;;;;16.40;61.92;100743.59;4990025;28;20252;-78
2022/08/09 03:33:22;;;;;;;4.13;2.23;;;;;;;16.34;62.02;100756.19;5019076;28;20182;-77
2022/08/09 03:35:49;;;;;;;3.47;2.30;;;;;;;16.36;62.38;100752.53;5010121;28;20183;-77
2022/08/09 03:38:15;;;;;;;2.23;2.07;;;;;;;16.26;63.58;100749.75;5011384;28;20256;-77
2022/08/09 03:40:40;;;;;;;3.57;1.67;;;;;;;16.28;63.32;100762.63;5011617;28;20225;-76
2022/08/09 03:43:05;;;;;;;2.57;2.10;;;;;;;16.26;62.71;100762.72;5021609;28;20334;-77
2022/08/09 03:45:31;;;;;;;2.70;2.30;;;;;;;16.23;62.25;100764.69;5046277;28;20324;-77
2022/08/09 03:47:56;;;;;;;4.60;2.10;;;;;;;16.25;62.79;100763.66;5014639;28;20203;-77
2022/08/09 03:50:25;;;;;;;5.97;2.27;;;;;;;16.18;63.50;100761.59;5008727;28;20301;-77
2022/08/09 03:52:53;;;;;;;3.27;2.17;;;;;;;16.15;64.30;100770.41;5040047;28;20665;-77
2022/08/09 03:55:19;;;;;;;6.10;2.27;;;;;;;16.02;65.54;100767.78;5012760;28;20189;-76
2022/08/09 03:57:47;;;;;;;5.07;1.90;;;;;;;15.98;65.93;100767.16;5015103;28;20277;-75
2022/08/09 04:00:13;;;;;;;2.30;2.10;;;;;;;16.06;65.41;100769.28;5005738;28;20187;-75
2022/08/09 04:02:41;;;;;;;4.10;2.43;;;;;;;16.00;65.64;100767.09;5043112;28;20201;-76
2022/08/09 04:05:09;;;;;;;3.60;2.00;;;;;;;16.03;65.59;100769.47;5012826;28;20186;-76
2022/08/09 04:07:35;;;;;;;5.20;2.47;;;;;;;16.11;65.05;100767.19;5014435;28;20230;-77
2022/08/09 04:10:00;;;;;;;4.47;2.13;;;;;;;16.05;65.11;100769.34;5016241;28;20175;-78
2022/08/09 04:12:35;;;;;;;4.77;2.20;;;;;;;15.85;66.36;100776.72;5023987;28;20567;-77
2022/08/09 04:15:00;;;;;;;2.53;2.20;;;;;;;15.99;66.67;100773.19;5018017;28;20257;-75
2022/08/09 04:17:26;;;;;;;4.70;2.23;;;;;;;15.97;67.15;100775.06;5014292;28;20244;-75
2022/08/09 04:19:51;;;;;;;2.70;1.97;;;;;;;15.89;67.63;100777.31;5014183;28;20171;-78
2022/08/09 04:22:17;;;;;;;4.03;2.37;;;;;;;15.81;68.25;100780.41;5035750;28;20217;-77
2022/08/09 04:24:42;;;;;;;9.30;2.20;;;;;;;15.92;67.71;100790.09;5014118;28;20190;-78
2022/08/09 04:27:08;;;;;;;3.87;2.20;;;;;;;16.03;66.52;100784.22;5012897;28;20191;-76
2022/08/09 04:29:33;;;;;;;2.37;2.10;;;;;;;16.13;66.13;100787.84;5013889;28;20202;-77
2022/08/09 04:31:59;;;;;;;4.13;2.30;;;;;;;16.14;66.52;100792.09;5021241;28;20225;-78
2022/08/09 04:34:24;;;;;;;2.80;2.30;;;;;;;16.12;67.26;100793.97;5012826;28;20186;-78
2022/08/09 04:36:49;;;;;;;6.60;2.27;;;;;;;16.22;67.33;100794.19;5012575;28;20653;-78
2022/08/09 04:39:15;;;;;;;5.57;2.30;;;;;;;16.21;66.61;100797.69;5012618;28;20183;-78
2022/08/09 04:41:40;;;;;;;5.57;2.50;;;;;;;16.21;67.63;100805.50;5019078;28;20341;-78
2022/08/09 04:44:10;;;;;;;6.67;2.37;;;;;;;16.27;67.13;100805.06;5018847;28;20269;-77
2022/08/09 04:46:38;;;;;;;3.50;2.77;;;;;;;16.27;67.79;100805.94;5013977;28;20265;-78
2022/08/09 04:49:03;;;;;;;4.13;2.47;;;;;;;16.34;67.08;100803.72;5013173;28;20560;-78
2022/08/09 04:51:28;;;;;;;4.77;2.63;;;;;;;16.37;67.15;100813.94;5016990;28;20304;-77
2022/08/09 04:53:53;;;;;;;4.00;2.70;;;;;;;16.42;66.49;100809.25;5015972;28;20269;-76
2022/08/09 04:56:19;;;;;;;5.10;2.47;;;;;;;16.49;66.67;100825.22;5013237;28;20201;-77
2022/08/09 04:58:44;;;;;;;4.53;2.27;;;;;;;16.60;65.55;100820.13;5013196;28;20212;-77
2022/08/09 05:01:09;;;;;;;6.57;2.63;;;;;;;16.71;64.26;100816.81;5021117;28;20602;-78
2022/08/09 05:03:35;;;;;;;3.93;2.30;;;;;;;16.79;63.56;100818.88;5027871;28;20619;-77
2022/08/09 05:06:00;;;;;;;5.90;2.53;;;;;;;16.81;63.46;100822.19;5012444;28;20678;-78
2022/08/09 05:08:25;;;;;;;4.90;2.50;;;;;;;16.83;63.96;100835.91;5020332;28;20269;-66
2022/08/09 05:10:51;;;;;;;4.30;2.30;;;;;;;16.97;64.14;100827.19;5015460;28;20241;-66
2022/08/09 05:13:16;;;;;;;4.43;2.70;;;;;;;17.14;64.75;100827.75;5031581;28;20198;-66
2022/08/09 05:15:41;;;;;;;4.70;2.87;;;;;;;17.47;63.11;100831.50;5013671;28;20190;-66
2022/08/09 05:18:07;;;;;;;4.23;2.87;;;;;;;17.62;61.34;100827.78;5011555;28;21403;-67
2022/08/09 05:20:32;;;;;;;4.80;2.20;;;;;;;17.69;60.35;100826.41;5008527;28;20229;-67
2022/08/09 05:22:58;;;;;;;4.13;2.20;;;;;;;17.64;60.99;100828.50;5024133;28;20778;-66
2022/08/09 05:25:24;;;;;;;5.83;2.27;;;;;;;17.59;60.70;100828.84;5011402;28;20182;-67
2022/08/09 05:27:49;;;;;;;6.57;2.50;;;;;;;17.66;62.43;100833.59;5012591;28;20198;-67
2022/08/09 05:30:16;;;;;;;2.43;2.23;;;;;;;17.94;59.78;100842.00;5006085;28;20218;-67
2022/08/09 05:32:42;;;;;;;3.20;2.90;;;;;;;18.16;59.38;100847.28;5041291;28;20591;-67
2022/08/09 05:35:08;;;;;;;3.80;2.50;;;;;;;18.18;61.07;100852.38;5012550;28;20191;-67
2022/08/09 05:37:33;;;;;;;4.43;2.73;;;;;;;18.34;60.08;100850.25;5011749;28;20270;-67
2022/08/09 05:39:59;;;;;;;9.13;3.10;;;;;;;18.48;58.88;100851.84;5011355;28;20201;-67
2022/08/09 05:42:24;;;;;;;7.13;3.10;;;;;;;18.65;57.75;100845.31;5018353;28;20653;-67
2022/08/09 05:44:51;;;;;;;5.10;2.63;;;;;;;18.77;57.85;100861.81;5012432;28;20183;-67
2022/08/09 05:47:21;;;;;;;4.63;3.00;;;;;;;18.76;56.64;100862.75;5011140;28;20242;-67
2022/08/09 05:49:46;;;;;;;3.47;2.83;;;;;;;18.92;56.77;100862.41;5012750;28;20233;-66
2022/08/09 05:52:12;;;;;;;4.70;2.60;;;;;;;18.89;56.88;100865.25;5034306;28;20672;-67
2022/08/09 05:54:37;;;;;;;3.47;2.43;;;;;;;18.94;57.94;100859.69;5012402;28;20626;-67
2022/08/09 05:57:03;;;;;;;5.10;2.77;;;;;;;19.09;57.63;100863.72;5011259;28;20179;-67
2022/08/09 05:59:28;;;;;;;4.33;2.60;;;;;;;19.14;57.03;100869.41;5011637;28;20187;-67
2022/08/09 06:01:53;;;;;;;8.27;3.00;;;;;;;19.30;55.45;100870.78;5019607;28;20263;-67
2022/08/09 06:04:19;;;;;;;12.50;2.93;;;;;;;19.44;55.10;100867.09;5011656;28;20666;-67
2022/08/09 06:06:44;;;;;;;7.47;3.10;;;;;;;19.57;53.87;100869.53;5011592;28;20230;-67
2022/08/09 06:09:09;;;;;;;3.83;2.70;;;;;;;19.76;52.47;100868.84;5021996;28;20202;-67
2022/08/09 06:11:34;;;;;;;7.13;3.10;;;;;;;19.97;51.32;100871.53;5033871;28;20703;-67
2022/08/09 06:14:00;;;;;;;8.77;3.10;;;;;;;20.18;51.48;100868.09;5024192;28;20217;-68
2022/08/09 06:16:25;;;;;;;9.57;3.17;;;;;;;20.35;49.91;100869.31;5024384;28;20614;-67
2022/08/09 06:18:50;;;;;;;4.03;3.10;;;;;;;20.51;49.56;100874.91;5012262;28;20193;-67
2022/08/09 06:21:16;;;;;;;9.53;3.27;;;;;;;20.54;49.33;100874.66;5014041;28;20626;-68
2022/08/09 06:23:41;;;;;;;12.90;3.20;;;;;;;20.61;47.51;100877.56;5024415;28;20182;-69
2022/08/09 06:26:06;;;;;;;7.70;2.77;;;;;;;20.83;47.42;100875.78;5010064;28;20527;-68
2022/08/09 06:28:31;;;;;;;11.33;3.97;;;;;;;20.96;46.46;100881.59;5010475;28;20205;-67
2022/08/09 06:30:57;;;;;;;6.63;3.27;;;;;;;20.98;46.01;100879.69;5011370;28;20282;-67
2022/08/09 06:33:22;;;;;;;10.67;2.93;;;;;;;21.21;44.72;100887.31;5029408;28;20182;-67
2022/08/09 06:35:47;;;;;;;11.03;3.40;;;;;;;21.34;44.32;100893.13;5010256;28;20232;-67
2022/08/09 06:38:13;;;;;;;8.60;5.40;;;;;;;21.40;44.40;100889.97;5011685;28;20247;-67
2022/08/09 06:40:38;;;;;;;5.37;2.57;;;;;;;21.78;42.21;100890.19;5008452;28;20228;-67
2022/08/09 06:43:03;;;;;;;4.10;2.13;;;;;;;22.04;40.08;100895.69;5021646;28;20181;-67
2022/08/09 06:45:29;;;;;;;5.40;2.30;;;;;;;22.25;39.06;100898.13;5009635;28;20199;-68
2022/08/09 06:47:54;;;;;;;10.87;2.57;;;;;;;23.13;37.94;100897.00;5043470;28;20193;-67
2022/08/09 06:50:20;;;;;;;5.63;2.30;;;;;;;23.91;35.72;100893.03;5006368;28;20194;-77
2022/08/09 06:52:46;;;;;;;3.60;1.90;;;;;;;24.95;33.89;100890.59;5037680;28;20662;-77
2022/08/09 06:55:13;;;;;;;5.10;2.20;;;;;;;25.98;32.33;100899.19;5009526;28;20191;-79
2022/08/09 06:57:38;;;;;;;6.27;2.10;;;;;;;26.13;31.71;100896.75;5011279;28;20178;-78
2022/08/09 07:00:04;;;;;;;7.25;2.80;;;;;;;27.20;30.10;100899.88;5004876;28;20190;-78
2022/08/09 07:02:30;;;;;;;5.40;2.28;;;;;;;27.16;29.94;100903.84;5016180;28;20211;-78
2022/08/09 07:04:56;;;;;;;5.57;2.10;;;;;;;27.19;28.72;100907.94;5010391;28;20634;-80
2022/08/09 07:07:21;;;;;;;2.83;2.20;;;;;;;26.45;30.02;100911.66;5009665;28;20596;-80
2022/08/09 07:09:46;;;;;;;3.15;1.95;;;;;;;26.80;29.43;100908.81;5012916;28;20214;-79
2022/08/09 07:12:11;;;;;;;7.15;1.92;;;;;;;27.07;29.44;100912.81;5024820;28;20301;-81
2022/08/09 07:14:37;;;;;;;4.13;1.75;;;;;;;26.90;29.11;100912.88;5017617;28;20209;-78
2022/08/09 07:17:03;;;;;;;2.00;1.67;;;;;;;27.94;27.84;100927.59;5020984;28;20229;-81
2022/08/09 07:19:28;;;;;;;4.20;2.03;;;;;;;28.05;27.58;100931.69;5013856;28;20200;-79
2022/08/09 07:21:53;;;;;;;2.58;1.70;;;;;;;27.74;27.89;100929.91;5034851;28;20221;-81
2022/08/09 07:24:19;;;;;;;2.22;1.77;;;;;;;28.51;26.92;100928.91;5017348;28;20642;-78
2022/08/09 07:26:44;;;;;;;4.88;1.52;;;;;;;27.06;28.36;100922.56;5015807;28;20179;-78
2022/08/09 07:29:09;;;;;;;1.90;1.73;;;;;;;27.86;27.76;100930.34;5014584;28;20210;-78
2022/08/09 07:31:35;;;;;;;2.75;1.65;;;;;;;28.86;26.31;100923.09;4997063;28;20237;-80
2022/08/09 07:34:00;;;;;;;4.43;1.88;;;;;;;28.76;25.97;100933.94;5012688;28;20212;-79
2022/08/09 07:36:26;;;;;;;1.73;1.63;;;;;;;28.66;26.62;100925.44;5014865;28;20621;-79
2022/08/09 07:38:51;;;;;;;2.08;1.70;;;;;;;28.73;26.47;100925.56;5014885;28;20554;-82
2022/08/09 07:41:17;;;;;;;4.32;2.10;;;;;;;29.84;25.35;100930.66;5024886;28;20316;-78
2022/08/09 07:43:42;;;;;;;8.65;2.10;;;;;;;29.17;26.41;100924.66;5019131;28;20175;-74
2022/08/09 07:46:09;;;;;;;4.97;2.22;;;;;;;29.84;25.57;100932.50;5014533;28;20756;-77
2022/08/09 07:48:34;;;;;;;3.15;1.92;;;;;;;29.25;26.34;100932.50;5001356;28;20647;-79
2022/08/09 07:51:00;;;;;;;4.40;2.05;;;;;;;31.06;24.13;100931.22;5039421;28;20380;-78
2022/08/09 07:53:26;;;;;;;6.88;2.03;;;;;;;31.49;24.01;100926.66;5013884;28;20269;-79
2022/08/09 07:55:51;;;;;;;3.70;1.88;;;;;;;30.01;25.20;100931.22;5012567;28;20175;-81
2022/08/09 07:58:17;;;;;;;3.08;2.03;;;;;;;31.69;23.46;100932.84;5046376;28;20191;-81
2022/08/09 08:00:42;;;;;;;2.67;2.10;;;;;;;33.10;21.60;100934.41;5012751;28;20229;-83
2022/08/09 08:03:08;;;;;;;4.10;2.10;;;;;;;31.63;22.91;100936.28;5034271;28;20179;-80
2022/08/09 08:05:33;;;;;;;6.35;2.10;;;;;;;33.08;21.81;100939.97;5002069;28;20372;-80
2022/08/09 08:07:58;;;;;;;6.38;2.20;;;;;;;32.32;22.32;100942.22;5013597;28;20212;-82
2022/08/09 08:10:24;;;;;;;3.08;1.98;;;;;;;31.35;23.45;100944.41;5008143;28;20233;-80
2022/08/09 08:12:49;;;;;;;6.18;1.90;;;;;;;30.27;24.67;100932.44;5027922;28;20309;-81
2022/08/09 08:15:18;;;;;;;5.20;2.30;;;;;;;30.70;24.24;100942.94;5017973;28;20186;-78
2022/08/09 08:17:50;;;;;;;2.40;1.88;;;;;;;30.68;24.47;100931.69;5014691;28;20187;-79
2022/08/09 08:20:16;;;;;;;3.25;1.75;;;;;;;31.15;24.22;100936.41;5005917;28;20206;-80
2022/08/09 08:22:42;;;;;;;1.92;1.73;;;;;;;32.08;22.96;100940.19;5041824;28;20194;-80
2022/08/09 08:25:08;;;;;;;7.22;2.17;;;;;;;31.12;23.92;100934.13;5015336;28;20179;-78
2022/08/09 08:27:33;;;;;;;3.67;2.00;;;;;;;30.57;24.50;100933.03;5028788;28;20210;-77
2022/08/09 08:29:58;;;;;;;6.07;2.00;;;;;;;29.83;25.93;100944.09;5020172;28;20209;-78
2022/08/09 08:32:24;;;;;;;4.10;1.73;;;;;;;29.18;26.58;100944.84;5019991;28;20226;-77
2022/08/09 08:34:50;;;;;;;2.53;1.90;;;;;;;30.01;25.52;100939.19;5015185;28;20650;-77
2022/08/09 08:37:15;;;;;;;5.35;1.67;;;;;;;30.64;24.78;100938.41;5014701;28;20187;-78
2022/08/09 08:39:40;;;;;;;4.43;2.00;;;;;;;30.32;25.36;100932.69;5013749;28;20182;-78
2022/08/09 08:42:07;;;;;;;9.63;2.22;;;;;;;30.65;24.91;100931.25;5037466;28;20221;-80
2022/08/09 08:44:36;;;;;;;2.15;1.52;;;;;;;30.31;25.25;100930.22;5013556;28;20593;-81
2022/08/09 08:47:02;;;;;;;5.32;1.90;;;;;;;32.49;23.13;100939.94;5012987;28;20186;-79
2022/08/09 08:49:29;;;;;;;3.90;1.98;;;;;;;31.70;23.15;100937.16;5032971;28;20207;-80
2022/08/09 08:51:55;;;;;;;3.65;1.98;;;;;;;30.68;24.46;100929.03;5020814;28;20224;-81
2022/08/09 08:54:20;;;;;;;5.22;2.03;;;;;;;30.98;24.60;100936.72;5013031;28;20277;-80
2022/08/09 08:56:46;;;;;;;3.60;1.75;;;;;;;30.70;25.22;100944.75;5013783;28;20179;-79
2022/08/09 08:59:13;;;;;;;3.05;2.13;;;;;;;31.16;24.36;100932.69;5018126;28;20182;-77
2022/08/09 09:01:42;;;;;;;7.95;2.08;;;;;;;31.88;23.31;100951.69;5034187;28;20845;-80
2022/08/09 09:04:10;;;;;;;3.58;2.00;;;;;;;32.34;22.67;100942.03;5014469;28;20229;-78
2022/08/09 09:06:38;;;;;;;2.20;1.73;;;;;;;32.40;22.47;100943.03;5013275;28;20253;-79
2022/08/09 09:09:04;;;;;;;2.60;2.03;;;;;;;31.72;23.83;100942.25;5012853;28;20219;-78
2022/08/09 09:11:32;;;;;;;4.75;2.20;;;;;;;31.42;23.95;100941.75;5023278;28;20224;-80
2022/08/09 09:14:00;;;;;;;3.25;1.63;;;;;;;32.13;23.50;100943.06;5022605;28;20269;-78
2022/08/09 09:16:28;;;;;;;2.05;1.85;;;;;;;32.78;22.14;100942.34;5004621;28;20186;-77
2022/08/09 09:18:53;;;;;;;4.30;1.88;;;;;;;33.33;22.22;100933.06;5012251;28;20182;-79
2022/08/09 09:21:19;;;;;;;7.07;2.17;;;;;;;33.69;21.50;100939.59;5023477;28;20293;-78
2022/08/09 09:23:45;;;;;;;3.70;2.15;;;;;;;33.39;22.08;100937.53;5024112;28;20194;-78
2022/08/09 09:26:12;;;;;;;2.47;1.90;;;;;;;31.59;23.29;100936.88;5011511;28;20201;-79
2022/08/09 09:28:42;;;;;;;5.57;1.98;;;;;;;33.40;21.56;100934.66;5012584;28;20194;-79
2022/08/09 09:31:15;;;;;;;8.32;2.15;;;;;;;32.09;23.44;100928.53;5020331;28;20256;-80
2022/08/09 09:33:41;;;;;;;4.03;2.20;;;;;;;33.18;22.29;100933.34;5021087;28;20189;-78
2022/08/09 09:36:09;;;;;;;3.85;2.05;;;;;;;32.60;22.60;100930.50;5010907;28;20183;-78
2022/08/09 09:38:42;;;;;;;6.95;2.08;;;;;;;33.42;21.22;100939.78;5010943;28;20549;-76
2022/08/09 09:41:09;;;;;;;3.42;1.70;;;;;;;33.40;21.45;100933.84;5020150;28;20229;-78
2022/08/09 09:43:34;;;;;;;3.50;2.13;;;;;;;34.16;21.32;100945.38;5026359;28;20194;-77
2022/08/09 09:46:04;;;;;;;3.30;1.98;;;;;;;34.95;19.77;100935.91;5012295;28;20635;-76
2022/08/09 09:48:29;;;;;;;4.30;1.92;;;;;;;33.04;22.32;100937.94;5010556;28;20206;-76
2022/08/09 09:50:55;;;;;;;6.00;2.17;;;;;;;32.70;22.42;100935.38;5016476;28;20228;-74
2022/08/09 09:53:26;;;;;;;4.10;2.30;;;;;;;35.30;19.51;100929.84;5030002;28;20227;-78
2022/08/09 09:55:57;;;;;;;4.60;1.85;;;;;;;33.92;21.06;100926.47;5010602;28;20186;-78
2022/08/09 09:58:23;;;;;;;5.00;2.20;;;;;;;32.76;22.12;100929.25;5016620;28;20201;-78
2022/08/09 10:00:51;;;;;;;5.60;2.03;;;;;;;34.91;19.82;100924.84;5012817;28;20229;-79
2022/08/09 10:03:16;;;;;;;2.92;1.75;;;;;;;35.97;18.91;100932.34;5013058;28;20237;-80
2022/08/09 10:05:59;;;;;;;2.97;2.10;;;;;;;34.10;20.48;100925.72;5011947;28;20249;-78
2022/08/09 10:08:24;;;;;;;1.95;1.67;;;;;;;34.48;20.39;100931.91;5010636;28;20244;-77
2022/08/09 10:10:51;;;;;;;10.00;2.40;;;;;;;35.64;19.40;100920.31;5008391;28;20304;-78
2022/08/09 10:13:17;;;;;;;2.80;1.75;;;;;;;36.71;17.82;100930.94;5019809;28;20290;-77
2022/08/09 10:15:48;;;;;;;4.30;1.60;;;;;;;35.77;18.25;100921.91;5012090;28;20175;-77
2022/08/09 10:18:13;;;;;;;4.75;1.83;;;;;;;36.54;17.72;100917.47;5008315;28;20221;-77
2022/08/09 10:20:39;;;;;;;5.20;1.92;;;;;;;36.71;17.50;100912.16;5008589;28;20221;-77
2022/08/09 10:23:18;;;;;;;4.03;2.05;;;;;;;36.46;18.04;100907.94;5021977;28;20182;-77
2022/08/09 10:25:48;;;;;;;2.28;1.65;;;;;;;36.51;16.86;100916.06;5011462;28;20185;-80
2022/08/09 10:28:13;;;;;;;2.45;1.48;;;;;;;34.93;18.39;100912.09;4997716;28;20306;-78
2022/08/09 10:30:39;;;;;;;4.95;1.77;;;;;;;35.62;18.42;100908.19;5012517;28;20333;-78
2022/08/09 10:33:04;;;;;;;1.77;1.60;;;;;;;34.37;18.90;100900.59;5023379;28;20193;-78
2022/08/09 10:35:30;;;;;;;4.80;1.85;;;;;;;31.92;21.25;100897.03;5006314;28;20709;-78
2022/08/09 10:37:59;;;;;;;2.03;1.50;;;;;;;32.25;21.28;100901.53;5011005;28;20182;-76
2022/08/09 10:40:25;;;;;;;2.70;1.48;;;;;;;33.55;19.76;100898.88;5006582;28;20516;-73
2022/08/09 10:42:50;;;;;;;1.67;1.30;;;;;;;34.20;18.63;100898.50;5015097;28;20179;-77
2022/08/09 10:45:17;;;;;;;3.42;1.80;;;;;;;35.02;18.69;100900.03;5009927;28;20187;-76
2022/08/09 10:48:00;;;;;;;5.68;1.80;;;;;;;33.20;21.04;100891.31;5009289;28;20241;-75
2022/08/09 10:53:43;;;;;;;2.00;1.60;;;;;;;30.19;22.96;100888.31;5032348;28;20266;-75
2022/08/09 10:56:23;;;;;;;8.65;1.83;;;;;;;29.64;24.06;100885.41;5014225;28;20195;-79
2022/08/09 10:58:54;;;;;;;4.00;2.30;;;;;;;28.82;25.08;100892.69;5003383;28;20225;-74
2022/08/09 11:01:31;;;;;;;4.22;1.67;;;;;;;28.71;25.67;100890.53;5011902;28;20230;-77
2022/08/09 11:04:08;;;;;;;3.97;2.05;;;;;;;28.36;26.07;100888.41;5001434;28;20187;-79
2022/08/09 11:06:41;;;;;;;4.13;1.70;;;;;;;28.50;25.32;100889.41;5026025;28;20242;-77
2022/08/09 11:09:08;;;;;;;4.28;1.45;;;;;;;28.52;25.70;100884.75;5016396;28;20285;-81
2022/08/09 11:11:58;;;;;;;4.25;2.00;;;;;;;28.46;26.01;100881.00;5035804;28;20240;-79
2022/08/09 11:14:27;;;;;;;3.60;1.67;;;;;;;28.82;25.79;100887.41;5018519;28;20238;-78
2022/08/09 11:16:53;;;;;;;2.22;1.67;;;;;;;28.41;25.60;100872.00;5031592;28;20599;-82
2022/08/09 11:19:50;;;;;;;5.45;1.73;;;;;;;28.53;25.49;100877.63;5010263;28;20188;-80
2022/08/09 11:22:16;;;;;;;4.22;1.63;;;;;;;28.24;25.81;100888.03;5031721;28;20222;-80
2022/08/09 11:24:56;;;;;;;2.70;1.50;;;;;;;28.35;25.98;100876.19;5013593;28;20668;-78
2022/08/09 11:27:47;;;;;;;4.63;1.80;;;;;;;28.56;25.95;100882.56;5015912;28;20186;-78
2022/08/09 11:30:21;;;;;;;1.73;1.60;;;;;;;28.67;25.11;100875.00;4977188;28;20211;-79
2022/08/09 11:32:58;;;;;;;2.38;1.40;;;;;;;28.55;25.43;100880.91;5020340;28;20182;-78